sensor_id;sensor_type;location;lat;lon;timestamp;P1;durP1;ratioP1;P2;durP2;ratioP2
5343;SDS011;2694;48.950;8.970;2022-12-07T00:00:53;8.10;;;5.60;;
5343;SDS011;2694;48.950;8.970;2022-12-07T00:03:20;8.02;;;5.40;;
5343;SDS011;2694;48.950;8.970;2022-12-07T00:05:47;9.15;;;5.60;;
5343;SDS011;2694;48.950;8.970;2022-12-07T00:08:15;9.48;;;6.03;;
5343;SDS011;2694;48.950;8.970;2022-12-07T00:10:42;11.00;;;6.10;;
5343;SDS011;2694;48.950;8.970;2022-12-07T00:13:09;9.43;;;6.60;;
5343;SDS011;2694;48.950;8.970;2022-12-07T00:15:36;9.82;;;6.55;;
5343;SDS011;2694;48.950;8.970;2022-12-07T00:18:03;12.48;;;6.18;;
5343;SDS011;2694;48.950;8.970;2022-12-07T00:20:30;10.98;;;6.50;;
5343;SDS011;2694;48.950;8.970;2022-12-07T00:22:58;11.20;;;6.78;;
5343;SDS011;2694;48.950;8.970;2022-12-07T00:25:26;12.15;;;7.10;;
5343;SDS011;2694;48.950;8.970;2022-12-07T00:27:53;9.27;;;6.10;;
5343;SDS011;2694;48.950;8.970;2022-12-07T00:30:21;12.35;;;7.13;;
5343;SDS011;2694;48.950;8.970;2022-12-07T00:32:49;11.50;;;6.60;;
5343;SDS011;2694;48.950;8.970;2022-12-07T00:35:17;8.90;;;5.70;;
5343;SDS011;2694;48.950;8.970;2022-12-07T00:37:44;8.85;;;6.07;;
5343;SDS011;2694;48.950;8.970;2022-12-07T00:40:12;13.45;;;6.70;;
5343;SDS011;2694;48.950;8.970;2022-12-07T00:42:40;12.23;;;6.05;;
5343;SDS011;2694;48.950;8.970;2022-12-07T00:45:09;9.63;;;6.05;;
5343;SDS011;2694;48.950;8.970;2022-12-07T00:47:36;8.90;;;5.50;;
5343;SDS011;2694;48.950;8.970;2022-12-07T00:50:04;11.63;;;6.60;;
5343;SDS011;2694;48.950;8.970;2022-12-07T00:52:31;8.75;;;5.90;;
5343;SDS011;2694;48.950;8.970;2022-12-07T00:54:58;12.75;;;6.78;;
5343;SDS011;2694;48.950;8.970;2022-12-07T00:57:25;11.02;;;6.43;;
5343;SDS011;2694;48.950;8.970;2022-12-07T00:59:54;13.60;;;7.80;;
5343;SDS011;2694;48.950;8.970;2022-12-07T01:02:22;11.90;;;7.25;;
5343;SDS011;2694;48.950;8.970;2022-12-07T01:04:49;12.00;;;7.15;;
5343;SDS011;2694;48.950;8.970;2022-12-07T01:07:16;15.80;;;7.32;;
5343;SDS011;2694;48.950;8.970;2022-12-07T01:09:43;16.65;;;8.52;;
5343;SDS011;2694;48.950;8.970;2022-12-07T01:12:10;12.20;;;7.63;;
5343;SDS011;2694;48.950;8.970;2022-12-07T01:14:37;13.45;;;7.93;;
5343;SDS011;2694;48.950;8.970;2022-12-07T01:17:05;10.20;;;6.75;;
5343;SDS011;2694;48.950;8.970;2022-12-07T01:19:32;12.07;;;6.90;;
5343;SDS011;2694;48.950;8.970;2022-12-07T01:21:59;11.60;;;7.20;;
5343;SDS011;2694;48.950;8.970;2022-12-07T01:24:26;13.70;;;7.88;;
5343;SDS011;2694;48.950;8.970;2022-12-07T01:26:53;14.75;;;8.85;;
5343;SDS011;2694;48.950;8.970;2022-12-07T01:29:20;13.93;;;8.40;;
5343;SDS011;2694;48.950;8.970;2022-12-07T01:31:48;16.77;;;8.85;;
5343;SDS011;2694;48.950;8.970;2022-12-07T01:34:16;14.80;;;8.23;;
5343;SDS011;2694;48.950;8.970;2022-12-07T01:36:43;14.82;;;7.88;;
5343;SDS011;2694;48.950;8.970;2022-12-07T01:39:10;16.40;;;8.50;;
5343;SDS011;2694;48.950;8.970;2022-12-07T01:41:39;14.88;;;8.55;;
5343;SDS011;2694;48.950;8.970;2022-12-07T01:44:10;13.93;;;8.40;;
5343;SDS011;2694;48.950;8.970;2022-12-07T01:46:40;16.15;;;8.80;;
5343;SDS011;2694;48.950;8.970;2022-12-07T01:49:08;18.17;;;9.25;;
5343;SDS011;2694;48.950;8.970;2022-12-07T01:51:40;13.95;;;8.55;;
5343;SDS011;2694;48.950;8.970;2022-12-07T01:54:09;18.60;;;9.30;;
5343;SDS011;2694;48.950;8.970;2022-12-07T01:56:39;12.90;;;8.77;;
5343;SDS011;2694;48.950;8.970;2022-12-07T01:59:08;13.93;;;9.27;;
5343;SDS011;2694;48.950;8.970;2022-12-07T02:01:36;14.50;;;8.38;;
5343;SDS011;2694;48.950;8.970;2022-12-07T02:04:03;13.75;;;7.60;;
5343;SDS011;2694;48.950;8.970;2022-12-07T02:06:30;18.13;;;8.80;;
5343;SDS011;2694;48.950;8.970;2022-12-07T02:08:59;19.10;;;8.57;;
5343;SDS011;2694;48.950;8.970;2022-12-07T02:11:26;14.60;;;8.77;;
5343;SDS011;2694;48.950;8.970;2022-12-07T02:13:53;15.55;;;9.05;;
5343;SDS011;2694;48.950;8.970;2022-12-07T02:16:23;15.70;;;8.63;;
5343;SDS011;2694;48.950;8.970;2022-12-07T02:19:06;14.60;;;9.05;;
5343;SDS011;2694;48.950;8.970;2022-12-07T02:21:59;14.63;;;8.75;;
5343;SDS011;2694;48.950;8.970;2022-12-07T02:24:45;17.02;;;9.50;;
5343;SDS011;2694;48.950;8.970;2022-12-07T02:27:32;14.50;;;8.80;;
5343;SDS011;2694;48.950;8.970;2022-12-07T02:30:06;16.88;;;9.70;;
5343;SDS011;2694;48.950;8.970;2022-12-07T02:32:38;17.23;;;8.98;;
5343;SDS011;2694;48.950;8.970;2022-12-07T02:35:11;17.85;;;9.00;;
5343;SDS011;2694;48.950;8.970;2022-12-07T02:37:47;16.45;;;9.07;;
5343;SDS011;2694;48.950;8.970;2022-12-07T02:40:21;16.23;;;9.38;;
5343;SDS011;2694;48.950;8.970;2022-12-07T02:42:53;12.75;;;7.88;;
5343;SDS011;2694;48.950;8.970;2022-12-07T02:45:26;14.90;;;8.07;;
5343;SDS011;2694;48.950;8.970;2022-12-07T02:47:56;13.50;;;8.33;;
5343;SDS011;2694;48.950;8.970;2022-12-07T02:50:26;14.40;;;7.97;;
5343;SDS011;2694;48.950;8.970;2022-12-07T02:52:54;13.85;;;7.97;;
5343;SDS011;2694;48.950;8.970;2022-12-07T02:55:23;11.52;;;7.30;;
5343;SDS011;2694;48.950;8.970;2022-12-07T02:58:01;14.43;;;8.27;;
5343;SDS011;2694;48.950;8.970;2022-12-07T03:00:41;12.15;;;7.75;;
5343;SDS011;2694;48.950;8.970;2022-12-07T03:03:17;16.15;;;8.30;;
5343;SDS011;2694;48.950;8.970;2022-12-07T03:05:59;15.30;;;9.27;;
5343;SDS011;2694;48.950;8.970;2022-12-07T03:08:37;16.30;;;8.73;;
5343;SDS011;2694;48.950;8.970;2022-12-07T03:11:12;13.52;;;8.20;;
5343;SDS011;2694;48.950;8.970;2022-12-07T03:13:45;13.90;;;8.20;;
5343;SDS011;2694;48.950;8.970;2022-12-07T03:16:19;13.95;;;8.70;;
5343;SDS011;2694;48.950;8.970;2022-12-07T03:18:50;13.73;;;8.25;;
5343;SDS011;2694;48.950;8.970;2022-12-07T03:21:20;13.17;;;8.00;;
5343;SDS011;2694;48.950;8.970;2022-12-07T03:23:51;15.65;;;8.70;;
5343;SDS011;2694;48.950;8.970;2022-12-07T03:26:21;15.43;;;8.50;;
5343;SDS011;2694;48.950;8.970;2022-12-07T03:28:51;14.68;;;8.55;;
5343;SDS011;2694;48.950;8.970;2022-12-07T03:31:23;15.65;;;9.13;;
5343;SDS011;2694;48.950;8.970;2022-12-07T03:33:57;17.30;;;9.00;;
5343;SDS011;2694;48.950;8.970;2022-12-07T03:36:29;16.25;;;9.32;;
5343;SDS011;2694;48.950;8.970;2022-12-07T03:39:02;15.48;;;9.55;;
5343;SDS011;2694;48.950;8.970;2022-12-07T03:41:40;19.48;;;9.50;;
5343;SDS011;2694;48.950;8.970;2022-12-07T03:44:07;16.70;;;9.67;;
5343;SDS011;2694;48.950;8.970;2022-12-07T03:46:37;15.13;;;8.70;;
5343;SDS011;2694;48.950;8.970;2022-12-07T03:49:11;21.65;;;9.02;;
5343;SDS011;2694;48.950;8.970;2022-12-07T03:51:45;13.52;;;7.97;;
5343;SDS011;2694;48.950;8.970;2022-12-07T03:54:19;14.73;;;8.18;;
5343;SDS011;2694;48.950;8.970;2022-12-07T03:56:49;13.48;;;7.85;;
5343;SDS011;2694;48.950;8.970;2022-12-07T03:59:18;15.65;;;7.90;;
5343;SDS011;2694;48.950;8.970;2022-12-07T04:01:52;16.90;;;8.23;;
5343;SDS011;2694;48.950;8.970;2022-12-07T04:04:20;12.98;;;8.25;;
5343;SDS011;2694;48.950;8.970;2022-12-07T04:06:48;14.02;;;8.20;;
5343;SDS011;2694;48.950;8.970;2022-12-07T04:09:15;14.48;;;7.70;;
5343;SDS011;2694;48.950;8.970;2022-12-07T04:11:42;13.68;;;7.95;;
5343;SDS011;2694;48.950;8.970;2022-12-07T04:14:09;12.30;;;7.65;;
5343;SDS011;2694;48.950;8.970;2022-12-07T04:16:45;15.60;;;8.40;;
5343;SDS011;2694;48.950;8.970;2022-12-07T04:19:14;13.07;;;7.40;;
5343;SDS011;2694;48.950;8.970;2022-12-07T04:21:43;15.07;;;8.50;;
5343;SDS011;2694;48.950;8.970;2022-12-07T04:24:11;18.05;;;8.70;;
5343;SDS011;2694;48.950;8.970;2022-12-07T04:26:38;12.07;;;7.53;;
5343;SDS011;2694;48.950;8.970;2022-12-07T04:29:05;16.23;;;8.40;;
5343;SDS011;2694;48.950;8.970;2022-12-07T04:31:32;15.45;;;7.90;;
5343;SDS011;2694;48.950;8.970;2022-12-07T04:34:00;14.20;;;7.90;;
5343;SDS011;2694;48.950;8.970;2022-12-07T04:36:28;14.73;;;8.17;;
5343;SDS011;2694;48.950;8.970;2022-12-07T04:38:55;12.63;;;8.50;;
5343;SDS011;2694;48.950;8.970;2022-12-07T04:41:23;13.50;;;8.02;;
5343;SDS011;2694;48.950;8.970;2022-12-07T04:43:53;12.73;;;7.03;;
5343;SDS011;2694;48.950;8.970;2022-12-07T04:46:21;13.70;;;7.15;;
5343;SDS011;2694;48.950;8.970;2022-12-07T04:48:48;14.77;;;8.02;;
5343;SDS011;2694;48.950;8.970;2022-12-07T04:51:15;15.13;;;8.38;;
5343;SDS011;2694;48.950;8.970;2022-12-07T04:53:47;15.57;;;8.70;;
5343;SDS011;2694;48.950;8.970;2022-12-07T04:56:14;15.93;;;7.80;;
5343;SDS011;2694;48.950;8.970;2022-12-07T04:58:43;14.95;;;8.15;;
5343;SDS011;2694;48.950;8.970;2022-12-07T05:01:12;11.95;;;8.02;;
5343;SDS011;2694;48.950;8.970;2022-12-07T05:03:39;13.65;;;8.18;;
5343;SDS011;2694;48.950;8.970;2022-12-07T05:06:07;13.60;;;8.15;;
5343;SDS011;2694;48.950;8.970;2022-12-07T05:08:34;16.90;;;9.43;;
5343;SDS011;2694;48.950;8.970;2022-12-07T05:11:03;17.08;;;8.85;;
5343;SDS011;2694;48.950;8.970;2022-12-07T05:13:31;19.08;;;9.32;;
5343;SDS011;2694;48.950;8.970;2022-12-07T05:15:58;19.15;;;9.75;;
5343;SDS011;2694;48.950;8.970;2022-12-07T05:18:25;17.40;;;9.93;;
5343;SDS011;2694;48.950;8.970;2022-12-07T05:20:52;15.40;;;8.27;;
5343;SDS011;2694;48.950;8.970;2022-12-07T05:23:19;13.13;;;8.30;;
5343;SDS011;2694;48.950;8.970;2022-12-07T05:25:46;13.77;;;7.78;;
5343;SDS011;2694;48.950;8.970;2022-12-07T05:28:14;13.65;;;7.75;;
5343;SDS011;2694;48.950;8.970;2022-12-07T05:30:41;13.15;;;7.85;;
5343;SDS011;2694;48.950;8.970;2022-12-07T05:33:08;11.05;;;7.38;;
5343;SDS011;2694;48.950;8.970;2022-12-07T05:35:35;13.70;;;7.13;;
5343;SDS011;2694;48.950;8.970;2022-12-07T05:38:02;14.85;;;7.88;;
5343;SDS011;2694;48.950;8.970;2022-12-07T05:40:29;13.00;;;7.05;;
5343;SDS011;2694;48.950;8.970;2022-12-07T05:42:56;14.75;;;8.32;;
5343;SDS011;2694;48.950;8.970;2022-12-07T05:45:25;15.45;;;8.40;;
5343;SDS011;2694;48.950;8.970;2022-12-07T05:47:52;13.60;;;8.15;;
5343;SDS011;2694;48.950;8.970;2022-12-07T05:50:19;16.83;;;8.87;;
5343;SDS011;2694;48.950;8.970;2022-12-07T05:52:46;14.95;;;8.40;;
5343;SDS011;2694;48.950;8.970;2022-12-07T05:55:13;16.60;;;8.68;;
5343;SDS011;2694;48.950;8.970;2022-12-07T05:57:40;18.03;;;8.20;;
5343;SDS011;2694;48.950;8.970;2022-12-07T06:00:29;14.80;;;8.40;;
5343;SDS011;2694;48.950;8.970;2022-12-07T06:02:55;15.60;;;8.60;;
5343;SDS011;2694;48.950;8.970;2022-12-07T06:05:22;16.47;;;9.03;;
5343;SDS011;2694;48.950;8.970;2022-12-07T06:07:49;18.45;;;8.82;;
5343;SDS011;2694;48.950;8.970;2022-12-07T06:10:16;15.70;;;8.50;;
5343;SDS011;2694;48.950;8.970;2022-12-07T06:12:43;18.33;;;8.73;;
5343;SDS011;2694;48.950;8.970;2022-12-07T06:15:11;14.07;;;8.00;;
5343;SDS011;2694;48.950;8.970;2022-12-07T06:17:40;16.20;;;8.35;;
5343;SDS011;2694;48.950;8.970;2022-12-07T06:20:07;14.85;;;9.05;;
5343;SDS011;2694;48.950;8.970;2022-12-07T06:22:34;17.60;;;8.80;;
5343;SDS011;2694;48.950;8.970;2022-12-07T06:25:01;14.83;;;8.17;;
5343;SDS011;2694;48.950;8.970;2022-12-07T06:27:28;15.07;;;8.90;;
5343;SDS011;2694;48.950;8.970;2022-12-07T06:29:57;14.45;;;9.00;;
5343;SDS011;2694;48.950;8.970;2022-12-07T06:32:24;20.20;;;9.90;;
5343;SDS011;2694;48.950;8.970;2022-12-07T06:34:53;18.27;;;9.93;;
5343;SDS011;2694;48.950;8.970;2022-12-07T06:37:20;14.80;;;8.10;;
5343;SDS011;2694;48.950;8.970;2022-12-07T06:39:47;13.68;;;7.63;;
5343;SDS011;2694;48.950;8.970;2022-12-07T06:42:14;17.85;;;9.43;;
5343;SDS011;2694;48.950;8.970;2022-12-07T06:44:40;13.20;;;7.47;;
5343;SDS011;2694;48.950;8.970;2022-12-07T06:47:08;15.80;;;8.52;;
5343;SDS011;2694;48.950;8.970;2022-12-07T06:49:36;12.82;;;8.10;;
5343;SDS011;2694;48.950;8.970;2022-12-07T06:52:05;14.70;;;8.00;;
5343;SDS011;2694;48.950;8.970;2022-12-07T06:54:32;16.90;;;7.82;;
5343;SDS011;2694;48.950;8.970;2022-12-07T06:56:59;14.27;;;7.50;;
5343;SDS011;2694;48.950;8.970;2022-12-07T06:59:26;12.35;;;7.47;;
5343;SDS011;2694;48.950;8.970;2022-12-07T07:01:53;12.30;;;6.85;;
5343;SDS011;2694;48.950;8.970;2022-12-07T07:04:20;11.68;;;7.32;;
5343;SDS011;2694;48.950;8.970;2022-12-07T07:06:47;13.00;;;7.15;;
5343;SDS011;2694;48.950;8.970;2022-12-07T07:09:15;13.00;;;6.80;;
5343;SDS011;2694;48.950;8.970;2022-12-07T07:11:42;13.20;;;6.82;;
5343;SDS011;2694;48.950;8.970;2022-12-07T07:14:09;11.77;;;7.15;;
5343;SDS011;2694;48.950;8.970;2022-12-07T07:16:36;15.75;;;8.90;;
5343;SDS011;2694;48.950;8.970;2022-12-07T07:19:03;12.68;;;6.70;;
5343;SDS011;2694;48.950;8.970;2022-12-07T07:21:30;13.25;;;7.35;;
5343;SDS011;2694;48.950;8.970;2022-12-07T07:23:57;12.70;;;7.00;;
5343;SDS011;2694;48.950;8.970;2022-12-07T07:26:25;13.18;;;6.85;;
5343;SDS011;2694;48.950;8.970;2022-12-07T07:28:52;12.45;;;6.47;;
5343;SDS011;2694;48.950;8.970;2022-12-07T07:31:19;10.35;;;6.45;;
5343;SDS011;2694;48.950;8.970;2022-12-07T07:33:46;10.23;;;6.18;;
5343;SDS011;2694;48.950;8.970;2022-12-07T07:36:13;10.77;;;5.90;;
5343;SDS011;2694;48.950;8.970;2022-12-07T07:38:40;11.02;;;6.13;;
5343;SDS011;2694;48.950;8.970;2022-12-07T07:41:07;11.63;;;6.00;;
5343;SDS011;2694;48.950;8.970;2022-12-07T07:43:36;9.80;;;6.20;;
5343;SDS011;2694;48.950;8.970;2022-12-07T07:46:03;10.80;;;6.03;;
5343;SDS011;2694;48.950;8.970;2022-12-07T07:48:30;11.05;;;6.28;;
5343;SDS011;2694;48.950;8.970;2022-12-07T07:50:57;40.40;;;16.10;;
5343;SDS011;2694;48.950;8.970;2022-12-07T07:53:24;48.55;;;19.13;;
5343;SDS011;2694;48.950;8.970;2022-12-07T07:55:51;34.93;;;14.80;;
5343;SDS011;2694;48.950;8.970;2022-12-07T07:58:19;20.90;;;8.73;;
5343;SDS011;2694;48.950;8.970;2022-12-07T08:00:48;11.48;;;6.32;;
5343;SDS011;2694;48.950;8.970;2022-12-07T08:03:15;13.30;;;6.95;;
5343;SDS011;2694;48.950;8.970;2022-12-07T08:05:42;9.07;;;5.70;;
5343;SDS011;2694;48.950;8.970;2022-12-07T08:08:09;11.75;;;6.50;;
5343;SDS011;2694;48.950;8.970;2022-12-07T08:10:36;10.35;;;6.40;;
5343;SDS011;2694;48.950;8.970;2022-12-07T08:13:03;10.50;;;6.15;;
5343;SDS011;2694;48.950;8.970;2022-12-07T08:15:40;11.50;;;6.07;;
5343;SDS011;2694;48.950;8.970;2022-12-07T08:18:09;11.77;;;5.70;;
5343;SDS011;2694;48.950;8.970;2022-12-07T08:20:37;11.50;;;6.15;;
5343;SDS011;2694;48.950;8.970;2022-12-07T08:23:05;10.98;;;5.47;;
5343;SDS011;2694;48.950;8.970;2022-12-07T08:25:33;17.25;;;8.10;;
5343;SDS011;2694;48.950;8.970;2022-12-07T08:28:00;18.70;;;9.07;;
5343;SDS011;2694;48.950;8.970;2022-12-07T08:30:28;22.75;;;9.50;;
5343;SDS011;2694;48.950;8.970;2022-12-07T08:32:55;16.58;;;7.50;;
5343;SDS011;2694;48.950;8.970;2022-12-07T08:35:24;21.48;;;6.78;;
5343;SDS011;2694;48.950;8.970;2022-12-07T08:37:51;13.25;;;6.50;;
5343;SDS011;2694;48.950;8.970;2022-12-07T08:40:18;10.70;;;5.30;;
5343;SDS011;2694;48.950;8.970;2022-12-07T08:42:48;9.73;;;5.50;;
5343;SDS011;2694;48.950;8.970;2022-12-07T08:45:15;11.10;;;5.95;;
5343;SDS011;2694;48.950;8.970;2022-12-07T08:47:44;12.40;;;5.70;;
5343;SDS011;2694;48.950;8.970;2022-12-07T08:50:15;9.32;;;5.55;;
5343;SDS011;2694;48.950;8.970;2022-12-07T08:52:44;9.63;;;5.30;;
5343;SDS011;2694;48.950;8.970;2022-12-07T08:55:16;9.65;;;5.50;;
5343;SDS011;2694;48.950;8.970;2022-12-07T08:57:44;10.77;;;5.75;;
5343;SDS011;2694;48.950;8.970;2022-12-07T09:00:12;12.68;;;6.43;;
5343;SDS011;2694;48.950;8.970;2022-12-07T09:02:41;9.15;;;5.72;;
5343;SDS011;2694;48.950;8.970;2022-12-07T09:05:09;8.18;;;5.10;;
5343;SDS011;2694;48.950;8.970;2022-12-07T09:07:36;10.02;;;5.88;;
5343;SDS011;2694;48.950;8.970;2022-12-07T09:10:06;8.00;;;5.45;;
5343;SDS011;2694;48.950;8.970;2022-12-07T09:12:37;12.75;;;5.15;;
5343;SDS011;2694;48.950;8.970;2022-12-07T09:15:10;7.90;;;4.70;;
5343;SDS011;2694;48.950;8.970;2022-12-07T09:17:37;7.90;;;4.20;;
5343;SDS011;2694;48.950;8.970;2022-12-07T09:20:04;5.80;;;3.50;;
5343;SDS011;2694;48.950;8.970;2022-12-07T09:22:35;6.43;;;3.55;;
5343;SDS011;2694;48.950;8.970;2022-12-07T09:25:02;5.10;;;3.50;;
5343;SDS011;2694;48.950;8.970;2022-12-07T09:27:32;5.32;;;3.55;;
5343;SDS011;2694;48.950;8.970;2022-12-07T09:29:59;7.05;;;3.85;;
5343;SDS011;2694;48.950;8.970;2022-12-07T09:32:26;7.78;;;4.53;;
5343;SDS011;2694;48.950;8.970;2022-12-07T09:34:53;6.35;;;4.10;;
5343;SDS011;2694;48.950;8.970;2022-12-07T09:37:20;6.53;;;3.80;;
5343;SDS011;2694;48.950;8.970;2022-12-07T09:39:47;7.70;;;4.65;;
5343;SDS011;2694;48.950;8.970;2022-12-07T09:42:19;9.80;;;4.47;;
5343;SDS011;2694;48.950;8.970;2022-12-07T09:44:55;9.85;;;5.15;;
5343;SDS011;2694;48.950;8.970;2022-12-07T09:47:23;7.15;;;4.70;;
5343;SDS011;2694;48.950;8.970;2022-12-07T09:49:50;10.60;;;4.60;;
5343;SDS011;2694;48.950;8.970;2022-12-07T09:52:18;8.90;;;5.20;;
5343;SDS011;2694;48.950;8.970;2022-12-07T09:54:48;9.73;;;5.00;;
5343;SDS011;2694;48.950;8.970;2022-12-07T09:57:16;9.70;;;5.00;;
5343;SDS011;2694;48.950;8.970;2022-12-07T09:59:43;7.97;;;4.45;;
5343;SDS011;2694;48.950;8.970;2022-12-07T10:02:23;7.35;;;4.50;;
5343;SDS011;2694;48.950;8.970;2022-12-07T10:05:03;11.00;;;4.95;;
5343;SDS011;2694;48.950;8.970;2022-12-07T10:07:32;9.85;;;5.15;;
5343;SDS011;2694;48.950;8.970;2022-12-07T10:09:59;9.75;;;4.75;;
5343;SDS011;2694;48.950;8.970;2022-12-07T10:12:28;9.35;;;4.72;;
5343;SDS011;2694;48.950;8.970;2022-12-07T10:14:56;9.73;;;5.15;;
5343;SDS011;2694;48.950;8.970;2022-12-07T10:17:32;9.35;;;5.13;;
5343;SDS011;2694;48.950;8.970;2022-12-07T10:20:14;13.95;;;6.82;;
5343;SDS011;2694;48.950;8.970;2022-12-07T10:23:00;10.02;;;5.30;;
5343;SDS011;2694;48.950;8.970;2022-12-07T10:25:30;10.70;;;5.50;;
5343;SDS011;2694;48.950;8.970;2022-12-07T10:28:02;10.75;;;5.15;;
5343;SDS011;2694;48.950;8.970;2022-12-07T10:30:46;11.85;;;6.00;;
5343;SDS011;2694;48.950;8.970;2022-12-07T10:33:24;11.38;;;5.90;;
5343;SDS011;2694;48.950;8.970;2022-12-07T10:35:58;7.18;;;4.68;;
5343;SDS011;2694;48.950;8.970;2022-12-07T10:38:27;11.27;;;5.60;;
5343;SDS011;2694;48.950;8.970;2022-12-07T10:41:04;10.13;;;5.25;;
5343;SDS011;2694;48.950;8.970;2022-12-07T10:43:31;8.27;;;5.70;;
5343;SDS011;2694;48.950;8.970;2022-12-07T10:49:02;9.90;;;5.10;;
5343;SDS011;2694;48.950;8.970;2022-12-07T10:51:38;8.68;;;5.30;;
5343;SDS011;2694;48.950;8.970;2022-12-07T10:54:12;11.50;;;5.83;;
5343;SDS011;2694;48.950;8.970;2022-12-07T10:56:53;10.45;;;5.47;;
5343;SDS011;2694;48.950;8.970;2022-12-07T10:59:33;12.75;;;5.82;;
5343;SDS011;2694;48.950;8.970;2022-12-07T11:02:24;10.98;;;6.55;;
5343;SDS011;2694;48.950;8.970;2022-12-07T11:05:09;11.20;;;5.90;;
5343;SDS011;2694;48.950;8.970;2022-12-07T11:07:47;11.10;;;6.03;;
5343;SDS011;2694;48.950;8.970;2022-12-07T11:10:26;11.20;;;5.90;;
5343;SDS011;2694;48.950;8.970;2022-12-07T11:13:10;12.88;;;6.82;;
5343;SDS011;2694;48.950;8.970;2022-12-07T11:15:53;14.48;;;7.00;;
5343;SDS011;2694;48.950;8.970;2022-12-07T11:18:29;10.48;;;5.72;;
5343;SDS011;2694;48.950;8.970;2022-12-07T11:21:03;9.95;;;6.07;;
5343;SDS011;2694;48.950;8.970;2022-12-07T11:23:40;10.75;;;6.30;;
5343;SDS011;2694;48.950;8.970;2022-12-07T11:26:16;10.90;;;7.18;;
5343;SDS011;2694;48.950;8.970;2022-12-07T11:28:59;11.50;;;6.60;;
5343;SDS011;2694;48.950;8.970;2022-12-07T11:31:45;12.38;;;6.70;;
5343;SDS011;2694;48.950;8.970;2022-12-07T11:34:23;13.45;;;6.95;;
5343;SDS011;2694;48.950;8.970;2022-12-07T11:36:58;13.85;;;6.90;;
5343;SDS011;2694;48.950;8.970;2022-12-07T11:39:31;12.25;;;7.57;;
5343;SDS011;2694;48.950;8.970;2022-12-07T11:42:03;13.40;;;7.27;;
5343;SDS011;2694;48.950;8.970;2022-12-07T11:44:33;14.05;;;7.45;;
5343;SDS011;2694;48.950;8.970;2022-12-07T11:47:07;11.90;;;6.72;;
5343;SDS011;2694;48.950;8.970;2022-12-07T11:49:40;14.30;;;7.10;;
5343;SDS011;2694;48.950;8.970;2022-12-07T11:52:17;13.63;;;7.15;;
5343;SDS011;2694;48.950;8.970;2022-12-07T11:54:51;11.60;;;6.30;;
5343;SDS011;2694;48.950;8.970;2022-12-07T11:57:20;16.33;;;7.45;;
5343;SDS011;2694;48.950;8.970;2022-12-07T11:59:52;12.18;;;6.90;;
5343;SDS011;2694;48.950;8.970;2022-12-07T12:02:26;14.30;;;7.50;;
5343;SDS011;2694;48.950;8.970;2022-12-07T12:05:02;12.50;;;7.05;;
5343;SDS011;2694;48.950;8.970;2022-12-07T12:07:40;14.80;;;7.15;;
5343;SDS011;2694;48.950;8.970;2022-12-07T12:10:14;12.60;;;7.40;;
5343;SDS011;2694;48.950;8.970;2022-12-07T12:12:55;12.50;;;7.22;;
5343;SDS011;2694;48.950;8.970;2022-12-07T12:15:38;12.20;;;7.22;;
5343;SDS011;2694;48.950;8.970;2022-12-07T12:21:07;11.38;;;7.00;;
5343;SDS011;2694;48.950;8.970;2022-12-07T12:23:39;13.65;;;7.70;;
5343;SDS011;2694;48.950;8.970;2022-12-07T12:26:13;15.38;;;8.05;;
5343;SDS011;2694;48.950;8.970;2022-12-07T12:28:49;13.70;;;7.60;;
5343;SDS011;2694;48.950;8.970;2022-12-07T12:31:30;16.45;;;8.25;;
5343;SDS011;2694;48.950;8.970;2022-12-07T12:34:04;15.52;;;8.35;;
5343;SDS011;2694;48.950;8.970;2022-12-07T12:37:07;13.80;;;7.60;;
5343;SDS011;2694;48.950;8.970;2022-12-07T12:42:59;14.15;;;8.45;;
5343;SDS011;2694;48.950;8.970;2022-12-07T12:45:26;13.43;;;7.50;;
5343;SDS011;2694;48.950;8.970;2022-12-07T12:47:56;14.77;;;8.52;;
5343;SDS011;2694;48.950;8.970;2022-12-07T12:50:27;17.17;;;8.70;;
5343;SDS011;2694;48.950;8.970;2022-12-07T12:53:00;16.63;;;9.77;;
5343;SDS011;2694;48.950;8.970;2022-12-07T12:58:49;14.00;;;7.82;;
5343;SDS011;2694;48.950;8.970;2022-12-07T13:01:52;15.68;;;9.25;;
5343;SDS011;2694;48.950;8.970;2022-12-07T13:04:34;18.93;;;9.20;;
5343;SDS011;2694;48.950;8.970;2022-12-07T13:10:29;26.35;;;12.32;;
5343;SDS011;2694;48.950;8.970;2022-12-07T13:25:12;16.20;;;8.85;;
5343;SDS011;2694;48.950;8.970;2022-12-07T13:27:48;14.00;;;8.30;;
5343;SDS011;2694;48.950;8.970;2022-12-07T13:30:20;13.68;;;7.70;;
5343;SDS011;2694;48.950;8.970;2022-12-07T13:32:51;18.05;;;8.27;;
5343;SDS011;2694;48.950;8.970;2022-12-07T13:35:32;14.82;;;8.50;;
5343;SDS011;2694;48.950;8.970;2022-12-07T13:38:02;17.10;;;8.77;;
5343;SDS011;2694;48.950;8.970;2022-12-07T13:40:33;18.83;;;8.97;;
5343;SDS011;2694;48.950;8.970;2022-12-07T13:43:12;17.70;;;8.70;;
5343;SDS011;2694;48.950;8.970;2022-12-07T13:45:41;22.35;;;8.77;;
5343;SDS011;2694;48.950;8.970;2022-12-07T13:48:15;18.17;;;9.48;;
5343;SDS011;2694;48.950;8.970;2022-12-07T13:50:52;16.17;;;9.32;;
5343;SDS011;2694;48.950;8.970;2022-12-07T13:53:20;17.55;;;8.60;;
5343;SDS011;2694;48.950;8.970;2022-12-07T13:55:49;21.80;;;10.33;;
5343;SDS011;2694;48.950;8.970;2022-12-07T13:58:16;18.50;;;10.80;;
5343;SDS011;2694;48.950;8.970;2022-12-07T14:00:43;19.67;;;9.73;;
5343;SDS011;2694;48.950;8.970;2022-12-07T14:03:30;18.95;;;9.95;;
5343;SDS011;2694;48.950;8.970;2022-12-07T14:06:06;18.75;;;9.50;;
5343;SDS011;2694;48.950;8.970;2022-12-07T14:08:40;18.52;;;10.52;;
5343;SDS011;2694;48.950;8.970;2022-12-07T14:11:09;19.20;;;10.33;;
5343;SDS011;2694;48.950;8.970;2022-12-07T14:13:44;23.55;;;11.32;;
5343;SDS011;2694;48.950;8.970;2022-12-07T14:16:27;22.50;;;12.20;;
5343;SDS011;2694;48.950;8.970;2022-12-07T14:18:56;24.48;;;12.23;;
5343;SDS011;2694;48.950;8.970;2022-12-07T14:21:24;24.00;;;12.60;;
5343;SDS011;2694;48.950;8.970;2022-12-07T14:26:48;24.55;;;13.10;;
5343;SDS011;2694;48.950;8.970;2022-12-07T14:29:20;23.02;;;11.98;;
5343;SDS011;2694;48.950;8.970;2022-12-07T14:31:55;24.25;;;12.95;;
5343;SDS011;2694;48.950;8.970;2022-12-07T14:34:23;27.20;;;14.27;;
5343;SDS011;2694;48.950;8.970;2022-12-07T14:36:51;27.73;;;14.10;;
5343;SDS011;2694;48.950;8.970;2022-12-07T14:39:18;28.80;;;13.93;;
5343;SDS011;2694;48.950;8.970;2022-12-07T14:41:45;24.40;;;12.48;;
5343;SDS011;2694;48.950;8.970;2022-12-07T14:44:17;27.45;;;13.40;;
5343;SDS011;2694;48.950;8.970;2022-12-07T14:46:46;25.27;;;12.60;;
5343;SDS011;2694;48.950;8.970;2022-12-07T14:49:13;26.52;;;13.77;;
5343;SDS011;2694;48.950;8.970;2022-12-07T14:51:40;25.60;;;12.70;;
5343;SDS011;2694;48.950;8.970;2022-12-07T14:54:11;24.77;;;13.35;;
5343;SDS011;2694;48.950;8.970;2022-12-07T14:56:42;28.88;;;13.77;;
5343;SDS011;2694;48.950;8.970;2022-12-07T14:59:12;25.60;;;13.70;;
5343;SDS011;2694;48.950;8.970;2022-12-07T15:01:39;22.80;;;12.90;;
5343;SDS011;2694;48.950;8.970;2022-12-07T15:04:06;25.63;;;14.00;;
5343;SDS011;2694;48.950;8.970;2022-12-07T15:06:33;26.70;;;14.35;;
5343;SDS011;2694;48.950;8.970;2022-12-07T15:09:00;21.70;;;13.07;;
5343;SDS011;2694;48.950;8.970;2022-12-07T15:11:27;22.90;;;12.63;;
5343;SDS011;2694;48.950;8.970;2022-12-07T15:13:54;25.00;;;12.75;;
5343;SDS011;2694;48.950;8.970;2022-12-07T15:16:40;21.30;;;12.10;;
5343;SDS011;2694;48.950;8.970;2022-12-07T15:19:10;26.35;;;14.13;;
5343;SDS011;2694;48.950;8.970;2022-12-07T15:21:39;27.00;;;14.10;;
5343;SDS011;2694;48.950;8.970;2022-12-07T15:24:07;24.75;;;12.57;;
5343;SDS011;2694;48.950;8.970;2022-12-07T15:26:36;21.83;;;12.20;;
5343;SDS011;2694;48.950;8.970;2022-12-07T15:29:04;22.60;;;12.30;;
5343;SDS011;2694;48.950;8.970;2022-12-07T15:31:31;21.85;;;12.30;;
5343;SDS011;2694;48.950;8.970;2022-12-07T15:34:00;24.50;;;13.45;;
5343;SDS011;2694;48.950;8.970;2022-12-07T15:36:28;23.25;;;12.80;;
5343;SDS011;2694;48.950;8.970;2022-12-07T15:38:56;26.77;;;13.90;;
5343;SDS011;2694;48.950;8.970;2022-12-07T15:41:24;25.27;;;13.63;;
5343;SDS011;2694;48.950;8.970;2022-12-07T15:43:51;24.63;;;13.95;;
5343;SDS011;2694;48.950;8.970;2022-12-07T15:46:37;19.48;;;10.85;;
5343;SDS011;2694;48.950;8.970;2022-12-07T15:49:08;21.73;;;11.52;;
5343;SDS011;2694;48.950;8.970;2022-12-07T15:51:39;21.97;;;11.83;;